Time;durP1;ratioP1;P1;durP2;ratioP2;P2;SDS_P1;SDS_P2;PMS_P1;PMS_P2;Temp;Humidity;BMP_temperature;BMP_pressure;BME280_temperature;BME280_humidity;BME280_pressure;Samples;Min_cycle;Max_cycle;Signal;HPM_P1;HPM_P2
2023/04/24 00:00:26;;;;;;;5.07;3.67;;;9.90;99.90;;;;;;5054649;28;20139;-72
2023/04/24 00:02:51;;;;;;;13.02;7.55;;;9.90;99.90;;;;;;5072830;28;20107;-72
2023/04/24 00:05:17;;;;;;;6.85;5.03;;;9.90;99.90;;;;;;5054546;28;20477;-72
2023/04/24 00:07:45;;;;;;;18.17;12.80;;;9.80;99.90;;;;;;5072557;28;20020;-71
2023/04/24 00:10:11;;;;;;;14.32;7.50;;;9.70;99.90;;;;;;5072489;28;20393;-72
2023/04/24 00:12:38;;;;;;;7.65;3.25;;;9.80;99.90;;;;;;5072321;28;20456;-72
2023/04/24 00:15:04;;;;;;;3.97;1.60;;;9.80;99.90;;;;;;5088415;28;20032;-72
2023/04/24 00:17:30;;;;;;;4.93;1.48;;;9.80;99.90;;;;;;5072238;28;20037;-72
2023/04/24 00:19:58;;;;;;;10.88;6.72;;;9.80;99.90;;;;;;5072640;28;20024;-73
2023/04/24 00:22:28;;;;;;;7.72;4.15;;;9.70;99.90;;;;;;5072327;28;20120;-71
2023/04/24 00:24:54;;;;;;;10.13;4.82;;;9.80;99.90;;;;;;5054244;28;20033;-72
2023/04/24 00:27:20;;;;;;;5.53;3.65;;;9.70;99.90;;;;;;5072338;28;20016;-72
2023/04/24 00:29:47;;;;;;;7.88;4.43;;;9.70;99.90;;;;;;5072334;28;20071;-73
2023/04/24 00:32:13;;;;;;;8.02;4.35;;;9.60;99.90;;;;;;5072384;28;20044;-72
2023/04/24 00:34:40;;;;;;;8.32;6.22;;;9.60;99.90;;;;;;5072569;28;20060;-73
2023/04/24 00:37:06;;;;;;;11.45;3.03;;;9.60;99.90;;;;;;5071044;28;20009;-72
2023/04/24 00:39:32;;;;;;;7.07;5.80;;;9.70;99.90;;;;;;5071843;28;20036;-73
2023/04/24 00:41:58;;;;;;;11.75;5.47;;;9.70;99.90;;;;;;5054326;28;20086;-72
2023/04/24 00:44:25;;;;;;;14.23;3.38;;;9.60;99.90;;;;;;5037961;28;20111;-72
2023/04/24 00:46:54;;;;;;;9.48;2.45;;;9.60;99.90;;;;;;5054095;28;20082;-73
2023/04/24 00:49:23;;;;;;;4.40;3.38;;;9.60;99.90;;;;;;5072154;28;20037;-72
2023/04/24 00:51:51;;;;;;;8.43;1.88;;;9.60;99.90;;;;;;5071781;28;20086;-73
2023/04/24 00:54:18;;;;;;;7.80;4.05;;;9.60;99.90;;;;;;5072296;28;20036;-72
2023/04/24 00:56:45;;;;;;;8.10;5.40;;;9.70;99.90;;;;;;5058397;28;20057;-72
2023/04/24 00:59:16;;;;;;;6.80;2.80;;;9.60;99.90;;;;;;5057957;28;20037;-72
2023/04/24 01:01:43;;;;;;;10.50;7.53;;;9.60;99.90;;;;;;5058217;28;20024;-72
2023/04/24 01:04:13;;;;;;;15.48;7.70;;;9.60;99.90;;;;;;5057884;28;20464;-72
2023/04/24 01:06:40;;;;;;;9.50;5.90;;;9.50;99.90;;;;;;5075907;28;20028;-72
2023/04/24 01:09:10;;;;;;;4.15;3.72;;;9.50;99.90;;;;;;5075437;28;20056;-71
2023/04/24 01:11:37;;;;;;;12.48;8.35;;;9.50;99.90;;;;;;5075807;28;20472;-73
2023/04/24 01:14:04;;;;;;;9.07;3.42;;;9.50;99.90;;;;;;5075597;28;20385;-72
2023/04/24 01:16:30;;;;;;;6.10;4.18;;;9.60;99.90;;;;;;5057807;28;20024;-71
2023/04/24 01:18:56;;;;;;;25.08;11.68;;;9.60;99.90;;;;;;5075675;28;20362;-73
2023/04/24 01:21:27;;;;;;;19.98;9.57;;;9.60;99.90;;;;;;5075795;28;20040;-72
2023/04/24 01:23:53;;;;;;;8.02;3.70;;;9.60;99.90;;;;;;5075444;28;20066;-73
2023/04/24 01:26:19;;;;;;;9.98;5.05;;;9.70;99.90;;;;;;5057495;28;20025;-73
2023/04/24 01:28:46;;;;;;;5.97;4.38;;;9.60;99.90;;;;;;5057413;28;20489;-73
2023/04/24 01:31:12;;;;;;;9.63;5.50;;;9.60;99.90;;;;;;5057603;28;20048;-72
2023/04/24 01:33:37;;;;;;;7.35;5.07;;;9.60;99.90;;;;;;5075396;28;20448;-73
2023/04/24 01:36:04;;;;;;;13.25;8.70;;;9.60;99.90;;;;;;5075525;28;20393;-72
2023/04/24 01:38:30;;;;;;;8.13;5.07;;;9.50;99.90;;;;;;5090509;28;20024;-72
2023/04/24 01:40:55;;;;;;;12.45;7.25;;;9.60;99.90;;;;;;5057324;28;20370;-72
2023/04/24 01:43:21;;;;;;;4.45;3.78;;;9.50;99.90;;;;;;5057059;28;20038;-72
2023/04/24 01:45:47;;;;;;;14.40;7.15;;;9.50;99.90;;;;;;5057684;28;20021;-72
2023/04/24 01:48:13;;;;;;;5.65;4.13;;;9.50;99.90;;;;;;5057113;28;20141;-72
2023/04/24 01:50:40;;;;;;;1.98;1.83;;;9.50;99.90;;;;;;5057118;28;20031;-73
2023/04/24 01:53:05;;;;;;;6.85;3.38;;;9.50;99.90;;;;;;5052220;28;20035;-72
2023/04/24 01:55:31;;;;;;;5.10;3.38;;;9.50;99.90;;;;;;5057014;28;20469;-71
2023/04/24 01:57:59;;;;;;;6.75;3.80;;;9.50;99.90;;;;;;5057237;28;20035;-72
2023/04/24 02:00:25;;;;;;;10.45;2.70;;;9.60;99.90;;;;;;5056970;28;20029;-72
2023/04/24 02:02:52;;;;;;;13.52;6.00;;;9.60;99.90;;;;;;5057063;28;20035;-73
2023/04/24 02:05:19;;;;;;;5.60;3.45;;;9.50;99.90;;;;;;5040147;28;20033;-72
2023/04/24 02:07:44;;;;;;;6.72;3.15;;;9.50;99.90;;;;;;5073683;28;20024;-72
2023/04/24 02:10:11;;;;;;;8.65;5.15;;;9.50;99.90;;;;;;5074797;28;20488;-72
2023/04/24 02:12:41;;;;;;;5.18;2.25;;;9.40;99.90;;;;;;5056738;28;20423;-72
2023/04/24 02:15:07;;;;;;;10.02;5.35;;;9.40;99.90;;;;;;5056805;28;20036;-72
2023/04/24 02:17:36;;;;;;;16.00;6.78;;;9.40;99.90;;;;;;5056558;28;20017;-72
2023/04/24 02:20:04;;;;;;;7.72;5.05;;;9.30;99.90;;;;;;5074273;28;20025;-72
2023/04/24 02:22:31;;;;;;;3.92;3.10;;;9.30;99.90;;;;;;5074637;28;20083;-71
2023/04/24 02:24:56;;;;;;;15.43;7.20;;;9.30;99.90;;;;;;5039920;28;20047;-72
2023/04/24 02:27:22;;;;;;;13.90;4.45;;;9.40;99.90;;;;;;5074362;28;20523;-72
2023/04/24 02:29:48;;;;;;;2.63;1.08;;;9.40;99.90;;;;;;5074062;28;20032;-73
2023/04/24 02:32:15;;;;;;;13.30;6.32;;;9.30;99.90;;;;;;5056569;28;20017;-73
2023/04/24 02:34:42;;;;;;;11.20;4.20;;;9.40;99.90;;;;;;5074049;28;20039;-73
2023/04/24 02:37:08;;;;;;;1.10;0.98;;;9.40;99.90;;;;;;5039772;28;20388;-72
2023/04/24 02:39:36;;;;;;;11.05;4.82;;;9.30;99.90;;;;;;5063005;28;20127;-71
2023/04/24 02:42:01;;;;;;;3.10;2.10;;;9.20;99.90;;;;;;5074072;28;20104;-70
2023/04/24 02:44:27;;;;;;;3.83;3.10;;;9.20;99.90;;;;;;5072586;28;20024;-71
2023/04/24 02:46:53;;;;;;;9.10;5.38;;;9.20;99.90;;;;;;5074042;28;20028;-70
2023/04/24 02:49:18;;;;;;;6.03;4.00;;;9.10;99.90;;;;;;5073454;28;20091;-71
2023/04/24 02:51:44;;;;;;;5.20;3.55;;;9.10;99.90;;;;;;5072009;28;20036;-71
2023/04/24 02:54:10;;;;;;;5.38;4.13;;;9.00;99.90;;;;;;5066457;28;20123;-71
2023/04/24 02:56:36;;;;;;;6.13;3.22;;;9.00;99.90;;;;;;5055459;28;20032;-70
2023/04/24 02:59:04;;;;;;;10.73;6.13;;;9.00;99.90;;;;;;5072386;28;20035;-70
2023/04/24 03:01:30;;;;;;;11.05;6.93;;;9.00;99.90;;;;;;5055909;28;20032;-70
2023/04/24 03:03:56;;;;;;;14.07;5.38;;;9.00;99.90;;;;;;5073503;28;20024;-71
2023/04/24 03:06:22;;;;;;;2.58;2.38;;;9.00;99.90;;;;;;5073583;28;20020;-71
2023/04/24 03:08:48;;;;;;;3.28;2.78;;;9.10;99.90;;;;;;5072155;28;20040;-70
2023/04/24 03:11:14;;;;;;;12.63;7.70;;;9.00;99.90;;;;;;5071789;28;20521;-70
2023/04/24 03:13:41;;;;;;;4.45;3.05;;;9.00;99.90;;;;;;5073798;28;20048;-70
2023/04/24 03:16:07;;;;;;;24.40;12.73;;;9.00;99.90;;;;;;5073075;28;20465;-70
2023/04/24 03:18:32;;;;;;;7.90;5.10;;;8.90;99.90;;;;;;5071561;28;20034;-70
2023/04/24 03:20:59;;;;;;;10.52;6.25;;;8.90;99.90;;;;;;5071853;28;20107;-71
2023/04/24 03:23:25;;;;;;;5.78;3.88;;;8.90;99.90;;;;;;5072116;28;20071;-71
2023/04/24 03:25:51;;;;;;;4.43;3.08;;;9.10;99.90;;;;;;5072132;28;20059;-70
2023/04/24 03:28:19;;;;;;;8.98;1.50;;;9.00;99.90;;;;;;5071706;28;20024;-71
2023/04/24 03:30:52;;;;;;;0.90;0.90;;;9.00;99.90;;;;;;5071807;28;20546;-71
2023/04/24 03:33:19;;;;;;;5.68;3.08;;;9.00;99.90;;;;;;5071725;28;20024;-70
2023/04/24 03:35:55;;;;;;;4.30;2.10;;;9.10;99.90;;;;;;5071961;28;20025;-70
2023/04/24 03:38:21;;;;;;;2.83;1.38;;;9.00;99.90;;;;;;5071704;28;20457;-71
2023/04/24 03:40:55;;;;;;;0.10;0.10;;;9.00;99.90;;;;;;5071609;28;20040;-70
2023/04/24 03:43:50;;;;;;;1.95;1.45;;;8.90;99.90;;;;;;5072227;28;20029;-72
2023/04/24 03:46:16;;;;;;;5.43;2.08;;;9.00;99.90;;;;;;5055081;28;20435;-72
2023/04/24 03:48:49;;;;;;;6.78;1.67;;;8.90;99.90;;;;;;5062607;28;20032;-72
2023/04/24 03:51:18;;;;;;;3.08;1.73;;;8.90;99.90;;;;;;5071550;28;20515;-72
2023/04/24 03:53:47;;;;;;;2.72;1.15;;;8.90;99.90;;;;;;5069625;28;20021;-72
2023/04/24 03:56:17;;;;;;;12.95;1.55;;;8.90;99.90;;;;;;5071683;28;20023;-71
2023/04/24 03:58:43;;;;;;;1.33;1.25;;;8.90;99.90;;;;;;5071369;28;20035;-72
2023/04/24 04:01:11;;;;;;;3.13;0.95;;;8.80;99.90;;;;;;5071487;28;20048;-72
2023/04/24 04:03:48;;;;;;;3.22;1.80;;;8.80;99.90;;;;;;5071144;28;20081;-72
2023/04/24 04:06:19;;;;;;;7.97;3.67;;;8.80;99.90;;;;;;5071396;28;20473;-72
2023/04/24 04:08:45;;;;;;;2.70;2.42;;;8.80;99.90;;;;;;5072650;28;20048;-71
2023/04/24 04:11:12;;;;;;;3.85;2.83;;;8.80;99.90;;;;;;5071057;28;20020;-72
2023/04/24 04:13:38;;;;;;;6.47;2.60;;;8.70;99.90;;;;;;5071369;28;20033;-72
2023/04/24 04:16:04;;;;;;;7.97;3.45;;;8.70;99.90;;;;;;5070938;28;20039;-69
2023/04/24 04:18:30;;;;;;;4.00;1.50;;;8.70;99.90;;;;;;5071412;28;20032;-72
2023/04/24 04:20:56;;;;;;;3.28;3.00;;;8.70;99.90;;;;;;5072725;28;20483;-72
2023/04/24 04:23:23;;;;;;;6.40;2.75;;;8.70;99.90;;;;;;5072864;28;20430;-72
2023/04/24 04:26:12;;;;;;;1.85;1.50;;;8.70;99.90;;;;;;5072428;28;20028;-72
2023/04/24 04:28:56;;;;;;;4.00;1.65;;;8.70;99.90;;;;;;5071005;28;20489;-72
2023/04/24 04:31:23;;;;;;;11.45;3.72;;;8.70;99.90;;;;;;5074821;28;20027;-71
2023/04/24 04:33:49;;;;;;;1.05;0.93;;;8.70;99.90;;;;;;5075305;28;20040;-72
2023/04/24 04:36:17;;;;;;;8.05;3.30;;;8.70;99.90;;;;;;5058460;28;20024;-72
2023/04/24 04:38:45;;;;;;;20.63;5.63;;;8.60;99.90;;;;;;5074995;28;20379;-72
2023/04/24 04:41:22;;;;;;;6.75;3.00;;;8.60;99.90;;;;;;5075252;28;20032;-72
2023/04/24 04:43:49;;;;;;;4.20;2.85;;;8.50;99.90;;;;;;5075141;28;20119;-72
2023/04/24 04:46:16;;;;;;;5.20;3.42;;;8.50;99.90;;;;;;5074866;28;20385;-72
2023/04/24 04:49:18;;;;;;;4.55;3.20;;;8.50;99.90;;;;;;5055674;28;20044;-72
2023/04/24 04:51:45;;;;;;;8.45;5.55;;;8.50;99.90;;;;;;5074841;28;20071;-72
2023/04/24 04:54:11;;;;;;;10.30;5.75;;;8.40;99.90;;;;;;5074940;28;20388;-72
2023/04/24 04:56:37;;;;;;;2.22;1.80;;;8.40;99.90;;;;;;5074629;28;20021;-72
2023/04/24 04:59:06;;;;;;;7.60;3.13;;;8.50;99.90;;;;;;5074246;28;20405;-72
2023/04/24 05:01:32;;;;;;;7.47;4.78;;;8.50;99.90;;;;;;5074410;28;20029;-72
2023/04/24 05:03:58;;;;;;;1.85;1.70;;;8.50;99.90;;;;;;5074531;28;20362;-72
2023/04/24 05:06:24;;;;;;;23.20;2.30;;;8.50;99.90;;;;;;5076092;28;20013;-72
2023/04/24 05:08:51;;;;;;;3.35;2.63;;;8.50;99.90;;;;;;5074236;28;20028;-71
2023/04/24 05:11:33;;;;;;;3.95;1.90;;;8.40;99.90;;;;;;5074337;28;20545;-72
2023/04/24 05:14:01;;;;;;;23.55;4.38;;;8.50;99.90;;;;;;5074052;28;20028;-72
2023/04/24 05:16:40;;;;;;;4.18;3.38;;;8.40;99.90;;;;;;5049248;28;20027;-72
2023/04/24 05:19:07;;;;;;;13.07;4.05;;;8.40;99.90;;;;;;5074257;28;20594;-72
2023/04/24 05:21:39;;;;;;;;;;;8.30;99.90;;;;;;5074837;28;20032;-72
2023/04/24 05:24:05;;;;;;;3.28;1.33;;;8.30;99.90;;;;;;5074021;28;19937;-72
2023/04/24 05:26:50;;;;;;;4.97;2.25;;;8.30;99.90;;;;;;5074261;28;20028;-71
2023/04/24 05:29:20;;;;;;;5.80;2.80;;;8.30;99.90;;;;;;5073992;28;20086;-72
2023/04/24 05:31:46;;;;;;;7.65;2.78;;;8.40;99.90;;;;;;5074137;28;20586;-72
2023/04/24 05:34:11;;;;;;;2.80;1.40;;;8.50;99.90;;;;;;5074308;28;20028;-71
2023/04/24 05:36:42;;;;;;;2.85;2.30;;;8.40;99.90;;;;;;5073899;28;20021;-71
2023/04/24 05:39:08;;;;;;;2.72;1.95;;;8.40;99.90;;;;;;5073949;28;20033;-72
2023/04/24 05:41:34;;;;;;;11.25;2.33;;;8.50;99.90;;;;;;5075008;28;20021;-71
2023/04/24 05:44:00;;;;;;;1.75;1.63;;;8.40;99.90;;;;;;5075027;28;20046;-72
2023/04/24 05:46:26;;;;;;;3.90;2.40;;;8.50;99.90;;;;;;5073769;28;20544;-71
2023/04/24 05:48:52;;;;;;;9.35;1.45;;;8.50;99.90;;;;;;5073694;28;20050;-72
2023/04/24 05:51:18;;;;;;;1.60;0.77;;;8.60;99.90;;;;;;5075289;28;20025;-71
2023/04/24 05:53:44;;;;;;;6.30;1.83;;;8.70;99.90;;;;;;5073833;28;20024;-71
2023/04/24 05:56:11;;;;;;;1.00;0.90;;;8.70;99.90;;;;;;5073943;28;20090;-72
2023/04/24 05:58:37;;;;;;;5.00;1.85;;;8.60;99.90;;;;;;5073292;28;20056;-72
2023/04/24 06:01:04;;;;;;;20.63;3.17;;;8.70;99.90;;;;;;5073592;28;20016;-72
2023/04/24 06:03:31;;;;;;;10.40;1.63;;;8.80;99.90;;;;;;5073482;28;20051;-71
2023/04/24 06:05:57;;;;;;;1.27;1.08;;;8.80;99.90;;;;;;5069753;28;20020;-72
2023/04/24 06:08:23;;;;;;;2.15;2.05;;;8.80;99.90;;;;;;5047915;28;20044;-72
2023/04/24 06:10:49;;;;;;;6.78;3.83;;;8.80;99.90;;;;;;5095419;28;20381;-72
2023/04/24 06:13:17;;;;;;;1.05;1.02;;;8.90;99.90;;;;;;5059112;28;20025;-71
2023/04/24 06:15:56;;;;;;;3.60;2.28;;;8.80;99.90;;;;;;5051090;28;20029;-72
2023/04/24 06:18:30;;;;;;;2.47;0.63;;;8.90;99.90;;;;;;5053072;28;20033;-71
2023/04/24 06:20:56;;;;;;;1.17;1.08;;;8.90;99.90;;;;;;5064802;28;20028;-71
2023/04/24 06:23:23;;;;;;;8.60;4.00;;;8.90;99.90;;;;;;5058805;28;20123;-72
2023/04/24 06:25:49;;;;;;;7.53;1.88;;;8.90;99.90;;;;;;5043789;28;20103;-73
2023/04/24 06:28:15;;;;;;;7.32;1.50;;;8.90;99.90;;;;;;5051181;28;20034;-71
2023/04/24 06:30:41;;;;;;;8.68;2.42;;;8.90;99.90;;;;;;5057583;28;20044;-73
2023/04/24 06:33:07;;;;;;;2.92;1.85;;;8.80;99.90;;;;;;5056376;28;20100;-72
2023/04/24 06:35:33;;;;;;;5.53;3.90;;;8.90;99.90;;;;;;5054938;28;20040;-72
2023/04/24 06:37:58;;;;;;;11.55;6.45;;;9.00;99.90;;;;;;5060479;28;20019;-71
2023/04/24 06:40:25;;;;;;;1.65;1.20;;;8.90;99.90;;;;;;5054785;28;20028;-71
2023/04/24 06:42:50;;;;;;;1.27;1.17;;;8.90;99.90;;;;;;5036651;28;20089;-72
2023/04/24 06:45:16;;;;;;;5.53;2.47;;;8.80;99.90;;;;;;5063742;28;20092;-71
2023/04/24 06:47:42;;;;;;;10.18;3.70;;;8.80;99.90;;;;;;5063847;28;20021;-71
2023/04/24 06:50:08;;;;;;;4.28;1.63;;;8.80;99.90;;;;;;5055223;28;20401;-71
2023/04/24 06:52:35;;;;;;;3.92;1.52;;;8.80;99.90;;;;;;5035031;28;20078;-70
2023/04/24 06:55:02;;;;;;;7.43;1.10;;;8.80;99.90;;;;;;5045069;28;20040;-72
2023/04/24 06:57:28;;;;;;;8.13;1.95;;;8.80;99.90;;;;;;5063616;28;20023;-72
2023/04/24 06:59:54;;;;;;;16.77;4.45;;;8.90;99.90;;;;;;5062319;28;20481;-71
2023/04/24 07:02:22;;;;;;;2.88;1.67;;;8.80;99.90;;;;;;5049823;28;20012;-72
2023/04/24 07:04:47;;;;;;;0.32;0.30;;;8.90;99.90;;;;;;5045840;28;20021;-73
2023/04/24 07:07:14;;;;;;;8.18;2.25;;;8.90;99.90;;;;;;5046407;28;20525;-71
2023/04/24 07:09:44;;;;;;;13.00;4.13;;;8.90;99.90;;;;;;5062899;28;20041;-70
2023/04/24 07:12:13;;;;;;;1.08;0.98;;;8.90;99.90;;;;;;5057518;28;20036;-71
2023/04/24 07:14:39;;;;;;;1.42;1.02;;;9.00;99.90;;;;;;5053006;28;20439;-71
2023/04/24 07:17:06;;;;;;;4.90;2.35;;;9.10;99.90;;;;;;5054195;28;20450;-71
2023/04/24 07:19:33;;;;;;;4.93;1.20;;;9.00;99.90;;;;;;5022555;28;20432;-71
2023/04/24 07:21:59;;;;;;;0.22;0.22;;;9.00;99.90;;;;;;5044870;28;20028;-71
2023/04/24 07:24:25;;;;;;;4.40;1.98;;;9.10;99.90;;;;;;5054594;28;20100;-71
2023/04/24 07:26:52;;;;;;;4.00;3.00;;;9.10;99.90;;;;;;5057195;28;20036;-70
2023/04/24 07:29:19;;;;;;;0.85;0.85;;;9.10;99.90;;;;;;5054878;28;20037;-71
2023/04/24 07:31:45;;;;;;;5.00;1.00;;;9.10;99.90;;;;;;5064372;28;20499;-71
2023/04/24 07:34:11;;;;;;;15.98;1.85;;;9.20;99.90;;;;;;5059256;28;20025;-71
2023/04/24 07:36:38;;;;;;;0.70;0.70;;;9.20;99.90;;;;;;5053371;28;20147;-71
2023/04/24 07:39:05;;;;;;;9.07;2.40;;;9.20;99.90;;;;;;5040747;28;20115;-71
2023/04/24 07:41:31;;;;;;;1.48;1.10;;;9.30;99.90;;;;;;5054742;28;20052;-70
2023/04/24 07:43:58;;;;;;;1.73;1.08;;;9.40;99.90;;;;;;5064013;28;20468;-72
2023/04/24 07:46:24;;;;;;;2.88;0.80;;;9.50;99.90;;;;;;5054818;28;20095;-70
2023/04/24 07:48:50;;;;;;;4.18;0.90;;;9.60;99.90;;;;;;5052879;28;20037;-71
2023/04/24 07:51:16;;;;;;;6.97;2.00;;;9.70;99.90;;;;;;5055120;28;20100;-71
2023/04/24 07:53:43;;;;;;;3.15;1.45;;;9.70;99.90;;;;;;5053480;28;20121;-71
2023/04/24 07:56:09;;;;;;;0.52;0.52;;;9.70;99.90;;;;;;5061266;28;20469;-71
2023/04/24 07:58:35;;;;;;;12.35;1.67;;;9.70;99.90;;;;;;5054411;28;20114;-71
2023/04/24 08:01:01;;;;;;;7.03;1.15;;;9.70;99.90;;;;;;5061394;28;20009;-71
2023/04/24 08:03:27;;;;;;;0.17;0.17;;;9.70;99.90;;;;;;5072150;28;20503;-71
2023/04/24 08:05:52;;;;;;;0.52;0.52;;;9.70;99.90;;;;;;5072117;28;20025;-71
2023/04/24 08:08:21;;;;;;;55.70;6.50;;;9.90;99.90;;;;;;5060628;28;20619;-70
2023/04/24 08:10:47;;;;;;;11.02;2.17;;;9.70;99.90;;;;;;5070654;28;20071;-70
2023/04/24 08:13:13;;;;;;;13.20;1.95;;;9.70;99.90;;;;;;5072223;28;20021;-70
2023/04/24 08:15:39;;;;;;;1.13;0.95;;;9.80;99.90;;;;;;5072128;28;20025;-70
2023/04/24 08:18:05;;;;;;;0.30;0.20;;;9.80;99.90;;;;;;5071657;28;20016;-70
2023/04/24 08:20:31;;;;;;;3.58;1.20;;;10.00;99.90;;;;;;5071981;28;20029;-70
2023/04/24 08:22:56;;;;;;;11.73;2.03;;;10.10;99.90;;;;;;5065081;28;20032;-70
2023/04/24 08:25:25;;;;;;;5.78;1.50;;;10.00;99.90;;;;;;5071761;28;20028;-71
2023/04/24 08:27:51;;;;;;;0.10;0.10;;;9.90;99.90;;;;;;5049975;28;20021;-70
2023/04/24 08:30:18;;;;;;;2.22;0.82;;;10.00;99.90;;;;;;5071948;28;20020;-70
2023/04/24 08:32:44;;;;;;;1.55;0.52;;;10.10;99.90;;;;;;5069653;28;20440;-70
2023/04/24 08:35:09;;;;;;;2.35;0.85;;;10.10;99.90;;;;;;5071596;28;20024;-70
2023/04/24 08:37:35;;;;;;;9.40;2.25;;;10.20;99.90;;;;;;5070623;28;20090;-70
2023/04/24 08:40:10;;;;;;;21.02;2.13;;;10.40;99.90;;;;;;5072083;28;20029;-70
2023/04/24 08:42:36;;;;;;;10.25;2.47;;;10.60;99.90;;;;;;5072462;28;20055;-70
2023/04/24 08:45:03;;;;;;;3.55;1.13;;;10.50;99.90;;;;;;5053885;28;20037;-70
2023/04/24 08:47:29;;;;;;;9.65;0.85;;;10.30;99.90;;;;;;5071318;28;20024;-70
2023/04/24 08:49:56;;;;;;;3.20;0.85;;;10.20;99.90;;;;;;5072006;28;20036;-71
2023/04/24 08:52:22;;;;;;;1.77;0.77;;;10.20;99.90;;;;;;5071883;28;20023;-70
2023/04/24 08:54:48;;;;;;;8.30;2.17;;;10.30;99.90;;;;;;5054472;28;20170;-70
2023/04/24 08:57:15;;;;;;;9.52;2.58;;;10.20;99.90;;;;;;5071859;28;20096;-71
2023/04/24 08:59:41;;;;;;;3.53;1.77;;;10.10;99.90;;;;;;5072473;28;20491;-71
2023/04/24 09:02:11;;;;;;;0.35;0.35;;;10.20;99.90;;;;;;5072295;28;20024;-71
2023/04/24 09:04:37;;;;;;;5.00;2.00;;;10.30;99.90;;;;;;5072381;28;20028;-71
2023/04/24 09:07:05;;;;;;;6.20;1.65;;;10.30;99.90;;;;;;5071857;28;20075;-71
2023/04/24 09:09:33;;;;;;;1.45;1.08;;;10.20;99.90;;;;;;5053897;28;20052;-71
2023/04/24 09:12:00;;;;;;;2.92;0.88;;;10.10;99.90;;;;;;5072221;28;20373;-70
2023/04/24 09:14:27;;;;;;;6.88;2.00;;;10.10;99.90;;;;;;5071868;28;20024;-71
2023/04/24 09:16:53;;;;;;;1.55;0.57;;;9.90;99.90;;;;;;5074733;28;20115;-72
2023/04/24 09:19:21;;;;;;;16.90;4.68;;;9.80;99.90;;;;;;5075401;28;20120;-71
2023/04/24 09:21:47;;;;;;;1.92;0.90;;;9.90;99.90;;;;;;5075609;28;20029;-71
2023/04/24 09:24:22;;;;;;;4.90;1.45;;;9.90;99.90;;;;;;5075672;28;20030;-73
2023/04/24 09:26:49;;;;;;;1.63;1.17;;;9.80;99.90;;;;;;5075673;28;20028;-72
2023/04/24 09:29:18;;;;;;;0.50;0.38;;;9.90;99.90;;;;;;5075328;28;20048;-71
2023/04/24 09:31:45;;;;;;;3.22;0.65;;;10.10;99.90;;;;;;5075384;28;20473;-72
2023/04/24 09:34:11;;;;;;;1.70;1.60;;;10.40;99.90;;;;;;5075308;28;20537;-70
2023/04/24 09:36:40;;;;;;;0.35;0.35;;;11.20;99.90;;;;;;5057248;28;20043;-70
2023/04/24 09:39:10;;;;;;;1.02;0.88;;;11.20;99.90;;;;;;5075258;28;20059;-71
2023/04/24 09:41:45;;;;;;;11.80;0.60;;;11.10;99.90;;;;;;5075228;28;20090;-71
2023/04/24 09:44:13;;;;;;;1.58;1.48;;;10.80;99.90;;;;;;5057210;28;20060;-72
2023/04/24 09:46:41;;;;;;;0.50;0.50;;;10.70;99.90;;;;;;5075115;28;20028;-71
2023/04/24 09:49:15;;;;;;;8.77;1.60;;;11.00;99.90;;;;;;5061708;28;20477;-70
2023/04/24 09:51:41;;;;;;;1.60;0.43;;;11.30;99.90;;;;;;5053081;28;20485;-71
2023/04/24 09:54:27;;;;;;;3.70;1.83;;;11.50;99.90;;;;;;5055005;28;20036;-71
2023/04/24 09:56:54;;;;;;;2.55;1.15;;;12.00;99.90;;;;;;5066160;28;20039;-71
2023/04/24 09:59:20;;;;;;;0.70;0.52;;;11.40;99.90;;;;;;5065243;28;20021;-70
2023/04/24 10:01:49;;;;;;;0.25;0.22;;;11.60;99.90;;;;;;5068321;28;20464;-72
2023/04/24 10:04:26;;;;;;;6.00;2.10;;;11.40;99.90;;;;;;5055841;28;20028;-70
2023/04/24 10:06:54;;;;;;;2.72;0.82;;;11.40;99.90;;;;;;5056345;28;20388;-70
2023/04/24 10:09:21;;;;;;;4.22;2.10;;;11.30;99.90;;;;;;5073627;28;20036;-70
2023/04/24 10:11:49;;;;;;;2.75;0.90;;;10.90;99.90;;;;;;5056157;28;20392;-70
2023/04/24 10:14:20;;;;;;;6.55;2.13;;;11.00;99.90;;;;;;5073789;28;20039;-70
2023/04/24 10:16:47;;;;;;;0.40;0.40;;;11.00;99.90;;;;;;5055718;28;20100;-70
2023/04/24 10:19:14;;;;;;;0.52;0.50;;;11.10;99.90;;;;;;5073822;28;20031;-69
2023/04/24 10:21:45;;;;;;;0.63;0.50;;;11.00;99.90;;;;;;5074908;28;20063;-70
2023/04/24 10:24:16;;;;;;;0.37;0.37;;;11.10;99.90;;;;;;5074402;28;20094;-70
2023/04/24 10:26:43;;;;;;;0.45;0.45;;;11.00;99.90;;;;;;5074055;28;20128;-69
2023/04/24 10:29:12;;;;;;;0.93;0.77;;;11.00;99.90;;;;;;5073728;28;20074;-71
2023/04/24 10:31:39;;;;;;;0.30;0.30;;;11.00;99.90;;;;;;5074514;28;20067;-70
2023/04/24 10:34:06;;;;;;;1.05;0.73;;;11.20;99.90;;;;;;5073927;28;20032;-71
2023/04/24 10:36:35;;;;;;;1.50;0.88;;;11.10;99.90;;;;;;5065704;28;20101;-71
2023/04/24 10:39:03;;;;;;;0.15;0.15;;;11.00;99.90;;;;;;5055977;28;20091;-72
2023/04/24 10:41:31;;;;;;;2.45;1.42;;;11.00;99.90;;;;;;5054843;28;20071;-72
2023/04/24 10:44:06;;;;;;;1.92;1.73;;;11.20;99.90;;;;;;5040574;28;20095;-72
2023/04/24 10:46:32;;;;;;;3.90;1.75;;;11.10;99.90;;;;;;5053616;28;20025;-72
2023/04/24 10:48:58;;;;;;;0.60;0.52;;;11.50;99.90;;;;;;5053410;28;20416;-72
2023/04/24 10:51:44;;;;;;;5.82;1.20;;;12.00;99.90;;;;;;5035937;28;20021;-72
2023/04/24 10:54:26;;;;;;;0.65;0.40;;;12.40;99.90;;;;;;5054082;28;20049;-72
2023/04/24 10:56:52;;;;;;;9.05;0.90;;;12.30;99.90;;;;;;5053672;28;20106;-72
2023/04/24 10:59:34;;;;;;;3.03;0.75;;;12.10;99.90;;;;;;5053658;28;20424;-72
2023/04/24 11:02:00;;;;;;;0.30;0.30;;;12.00;99.90;;;;;;5066564;28;20119;-72
2023/04/24 11:04:31;;;;;;;1.85;0.45;;;12.20;99.90;;;;;;5073769;28;20057;-71
2023/04/24 11:06:57;;;;;;;1.25;0.30;;;12.10;99.90;;;;;;5073602;28;20043;-72
2023/04/24 11:09:32;;;;;;;0.10;0.10;;;12.00;99.90;;;;;;5073465;28;20103;-72
2023/04/24 11:12:12;;;;;;;0.10;0.10;;;12.20;99.90;;;;;;5073537;28;20021;-72
2023/04/24 11:14:57;;;;;;;12.75;1.23;;;12.00;99.90;;;;;;5073576;28;20052;-71
2023/04/24 11:17:31;;;;;;;0.45;0.10;;;12.20;99.90;;;;;;5073246;28;20033;-72
2023/04/24 11:20:09;;;;;;;2.00;1.17;;;12.10;99.90;;;;;;5073444;28;20026;-72
2023/04/24 11:22:37;;;;;;;2.30;0.45;;;11.90;99.90;;;;;;5073361;28;20024;-72
2023/04/24 11:25:04;;;;;;;0.13;0.13;;;11.60;99.90;;;;;;5073431;28;20027;-71
2023/04/24 11:27:38;;;;;;;0.30;0.30;;;11.60;99.90;;;;;;5071653;28;20021;-72
2023/04/24 11:30:05;;;;;;;0.52;0.35;;;11.60;99.90;;;;;;5073135;28;20125;-72
2023/04/24 11:32:38;;;;;;;0.52;0.52;;;11.50;99.90;;;;;;5055039;28;20107;-72
2023/04/24 11:35:24;;;;;;;0.40;0.30;;;11.60;99.90;;;;;;5073095;28;20048;-72
2023/04/24 11:37:52;;;;;;;1.95;1.08;;;11.60;99.90;;;;;;5072778;28;20038;-73
2023/04/24 11:40:22;;;;;;;3.60;0.55;;;11.60;99.90;;;;;;5072713;28;20029;-72
2023/04/24 11:42:50;;;;;;;5.05;1.15;;;11.70;99.90;;;;;;5073043;28;20033;-72
2023/04/24 11:45:22;;;;;;;8.40;0.63;;;11.50;99.90;;;;;;5072860;28;20033;-72
2023/04/24 11:47:47;;;;;;;0.30;0.30;;;11.50;99.90;;;;;;5072765;28;20063;-72
2023/04/24 11:50:18;;;;;;;0.10;0.10;;;11.80;99.90;;;;;;5072903;28;20067;-70
2023/04/24 11:52:47;;;;;;;0.30;0.20;;;12.00;99.90;;;;;;5072893;28;20451;-72
2023/04/24 11:55:16;;;;;;;17.52;0.52;;;12.10;99.90;;;;;;5072866;28;20471;-73
2023/04/24 11:57:49;;;;;;;0.47;0.47;;;12.10;99.90;;;;;;5072881;28;20031;-72
2023/04/24 12:00:34;;;;;;;0.40;0.32;;;11.90;99.90;;;;;;5072486;28;20492;-73
2023/04/24 12:03:11;;;;;;;2.53;0.88;;;12.00;99.90;;;;;;5072777;28;20028;-72
2023/04/24 12:05:39;;;;;;;0.40;0.35;;;12.00;99.90;;;;;;5072586;28;20107;-72
2023/04/24 12:08:05;;;;;;;0.55;0.55;;;11.70;99.90;;;;;;5072699;28;20027;-71
2023/04/24 12:10:32;;;;;;;3.42;1.08;;;11.50;99.90;;;;;;5072783;28;20046;-70
2023/04/24 12:12:59;;;;;;;0.55;0.55;;;11.50;99.90;;;;;;5054364;28;20383;-71
2023/04/24 12:15:26;;;;;;;0.20;0.20;;;11.60;99.90;;;;;;5072468;28;20558;-71
2023/04/24 12:17:53;;;;;;;1.40;0.82;;;11.70;99.90;;;;;;5054489;28;20047;-73
2023/04/24 12:20:27;;;;;;;0.90;0.30;;;11.80;99.90;;;;;;5072516;28;20017;-72
2023/04/24 12:22:57;;;;;;;0.08;0.08;;;11.90;99.90;;;;;;5072529;28;20485;-72
2023/04/24 12:25:32;;;;;;;1.27;0.90;;;12.10;99.90;;;;;;5072593;28;20074;-72
2023/04/24 12:28:04;;;;;;;2.08;0.90;;;11.90;99.90;;;;;;5071962;28;20032;-72
2023/04/24 12:30:31;;;;;;;;;;;11.80;99.90;;;;;;5072742;28;20036;-72
2023/04/24 12:32:58;;;;;;;0.00;0.00;;;11.70;99.90;;;;;;5072311;28;19915;-72
2023/04/24 12:35:27;;;;;;;0.30;0.30;;;11.70;99.90;;;;;;5054274;28;20111;-72
2023/04/24 12:37:53;;;;;;;0.43;0.43;;;11.60;99.90;;;;;;5072393;28;20101;-72
2023/04/24 12:40:25;;;;;;;1.55;0.43;;;11.50;99.90;;;;;;5072394;28;20480;-72
2023/04/24 12:42:51;;;;;;;4.53;0.70;;;11.70;99.90;;;;;;5072238;28;20032;-72
2023/04/24 12:45:19;;;;;;;5.82;1.27;;;11.80;99.90;;;;;;5072040;28;20024;-72
2023/04/24 12:47:46;;;;;;;0.65;0.57;;;12.10;99.90;;;;;;5072178;28;20025;-72
2023/04/24 12:50:14;;;;;;;2.38;0.75;;;12.50;99.90;;;;;;5072181;28;20505;-72
2023/04/24 12:52:41;;;;;;;0.10;0.10;;;12.80;99.90;;;;;;5076164;28;20490;-72
2023/04/24 12:55:08;;;;;;;0.13;0.13;;;13.10;99.90;;;;;;5063140;28;20067;-72
2023/04/24 12:57:36;;;;;;;0.30;0.30;;;13.00;99.90;;;;;;5058181;28;20021;-72